Time;durP1;ratioP1;P1;durP2;ratioP2;P2;SDS_P1;SDS_P2;PMS_P1;PMS_P2;Temp;Humidity;BMP_temperature;BMP_pressure;BME280_temperature;BME280_humidity;BME280_pressure;Samples;Min_cycle;Max_cycle;Signal;HPM_P1;HPM_P2
2022/07/01 00:01:37;;;;;;;8.18;4.40;;;14.60;99.90;;;;;;4974731;28;20404;-59
2022/07/01 00:04:03;;;;;;;6.25;3.85;;;14.50;99.90;;;;;;4974368;28;20033;-61
2022/07/01 00:06:29;;;;;;;5.95;3.95;;;14.50;99.90;;;;;;4974151;28;20065;-58
2022/07/01 00:08:56;;;;;;;12.68;4.93;;;14.50;99.90;;;;;;4978453;28;20034;-58
2022/07/01 00:11:21;;;;;;;9.93;3.60;;;14.50;99.90;;;;;;4974242;28;20026;-56
2022/07/01 00:13:47;;;;;;;8.63;3.85;;;14.50;99.90;;;;;;4973957;28;20027;-60
2022/07/01 00:16:13;;;;;;;5.63;3.88;;;14.40;99.90;;;;;;4975574;28;20026;-60
2022/07/01 00:18:38;;;;;;;5.20;3.40;;;14.50;99.90;;;;;;4974122;28;20027;-60
2022/07/01 00:21:04;;;;;;;4.22;3.80;;;14.50;99.90;;;;;;4974143;28;20033;-61
2022/07/01 00:23:31;;;;;;;5.72;3.90;;;14.50;99.90;;;;;;4974196;28;20037;-60
2022/07/01 00:25:57;;;;;;;5.50;4.03;;;14.50;99.90;;;;;;4973744;28;20660;-58
2022/07/01 00:28:23;;;;;;;7.13;4.55;;;14.40;99.90;;;;;;4974177;28;20100;-61
2022/07/01 00:30:48;;;;;;;5.28;4.22;;;14.40;99.90;;;;;;4975528;28;20508;-60
2022/07/01 00:33:14;;;;;;;5.90;5.20;;;14.30;99.90;;;;;;4976791;28;20039;-61
2022/07/01 00:35:40;;;;;;;6.32;4.60;;;14.30;99.90;;;;;;4973786;28;20023;-61
2022/07/01 00:38:05;;;;;;;8.98;4.75;;;14.30;99.90;;;;;;4973729;28;20397;-62
2022/07/01 00:40:31;;;;;;;8.88;5.60;;;14.30;99.90;;;;;;4972150;28;20131;-63
2022/07/01 00:42:57;;;;;;;12.18;5.32;;;14.30;99.90;;;;;;4973242;28;20097;-60
2022/07/01 00:45:22;;;;;;;5.65;4.57;;;14.30;99.90;;;;;;4978621;28;20038;-60
2022/07/01 00:47:50;;;;;;;9.02;4.82;;;14.30;99.90;;;;;;4979797;28;20034;-61
2022/07/01 00:50:15;;;;;;;5.43;4.10;;;14.30;99.90;;;;;;4973533;28;20488;-61
2022/07/01 00:52:42;;;;;;;8.52;4.55;;;14.40;99.90;;;;;;4973610;28;20029;-59
2022/07/01 00:55:11;;;;;;;8.77;5.25;;;14.40;99.90;;;;;;4971367;28;20058;-58
2022/07/01 00:57:39;;;;;;;9.25;5.40;;;14.40;99.90;;;;;;4973499;28;20496;-59
2022/07/01 01:00:09;;;;;;;9.18;5.47;;;14.30;99.90;;;;;;4975298;28;20050;-61
2022/07/01 01:02:35;;;;;;;13.40;5.90;;;14.30;99.90;;;;;;4973435;28;20114;-62
2022/07/01 01:05:02;;;;;;;13.98;6.07;;;14.30;99.90;;;;;;4973293;28;20050;-61
2022/07/01 01:07:29;;;;;;;8.88;5.63;;;14.30;99.90;;;;;;4972008;28;20031;-59
2022/07/01 01:09:55;;;;;;;13.43;6.35;;;14.30;99.90;;;;;;4972981;28;20023;-58
2022/07/01 01:12:24;;;;;;;13.15;6.30;;;14.30;99.90;;;;;;4973205;28;20054;-61
2022/07/01 01:14:50;;;;;;;10.95;6.32;;;14.30;99.90;;;;;;4973141;28;20106;-59
2022/07/01 01:17:17;;;;;;;9.27;6.25;;;14.30;99.90;;;;;;4972990;28;20030;-59
2022/07/01 01:19:43;;;;;;;9.05;6.60;;;14.30;99.90;;;;;;4973021;28;20034;-60
2022/07/01 01:22:11;;;;;;;18.40;6.68;;;14.30;99.90;;;;;;4973690;28;20023;-60
2022/07/01 01:24:37;;;;;;;12.40;7.30;;;14.30;99.90;;;;;;4964890;28;20035;-60
2022/07/01 01:27:04;;;;;;;12.57;7.55;;;14.30;99.90;;;;;;4973067;28;20109;-58
2022/07/01 01:29:31;;;;;;;10.07;6.68;;;14.30;99.90;;;;;;4973250;28;20034;-61
2022/07/01 01:31:56;;;;;;;11.13;6.70;;;14.40;99.90;;;;;;4972540;28;20224;-58
2022/07/01 01:34:22;;;;;;;8.68;6.35;;;14.30;99.90;;;;;;4973261;28;20111;-59
2022/07/01 01:36:48;;;;;;;9.70;6.78;;;14.40;99.90;;;;;;4971864;28;20110;-59
2022/07/01 01:41:39;;;;;;;13.40;7.20;;;14.30;99.90;;;;;;4975627;28;20121;-58
2022/07/01 01:44:04;;;;;;;15.10;9.02;;;14.30;99.90;;;;;;4972935;28;20035;-61
2022/07/01 01:46:30;;;;;;;14.93;7.93;;;14.30;99.90;;;;;;4972657;28;20047;-59
2022/07/01 01:48:57;;;;;;;12.57;7.90;;;14.30;99.90;;;;;;4972921;28;20030;-59
2022/07/01 01:51:23;;;;;;;13.02;8.57;;;14.30;99.90;;;;;;4976604;28;20113;-57
2022/07/01 01:53:48;;;;;;;17.38;8.13;;;14.30;99.90;;;;;;4973426;28;20106;-59
2022/07/01 01:56:14;;;;;;;12.10;7.75;;;14.30;99.90;;;;;;4976674;28;20109;-56
2022/07/01 01:58:44;;;;;;;13.52;8.00;;;14.30;99.90;;;;;;4976478;28;20019;-59
2022/07/01 02:01:13;;;;;;;15.52;8.70;;;14.30;99.90;;;;;;4976733;28;20042;-58
2022/07/01 02:03:40;;;;;;;14.23;7.88;;;14.40;99.90;;;;;;4976920;28;20030;-60
2022/07/01 02:06:07;;;;;;;15.63;9.00;;;14.40;99.90;;;;;;4975941;28;20493;-59
2022/07/01 02:08:33;;;;;;;12.82;8.48;;;14.40;99.90;;;;;;4981149;28;20038;-58
2022/07/01 02:10:59;;;;;;;17.95;9.70;;;14.30;99.90;;;;;;4976294;28;20031;-56
2022/07/01 02:13:25;;;;;;;13.68;9.20;;;14.30;99.90;;;;;;4976282;28;20436;-58
2022/07/01 02:15:50;;;;;;;15.90;10.02;;;14.30;99.90;;;;;;4976009;28;20043;-60
2022/07/01 02:18:17;;;;;;;13.80;9.52;;;14.30;99.90;;;;;;4976638;28;20559;-59
2022/07/01 02:20:43;;;;;;;16.80;10.07;;;14.30;99.90;;;;;;4982588;28;20027;-59
2022/07/01 02:23:09;;;;;;;17.42;9.23;;;14.30;99.90;;;;;;4976377;28;20507;-60
2022/07/01 02:25:36;;;;;;;16.30;8.85;;;14.20;99.90;;;;;;4976087;28;20862;-57
2022/07/01 02:28:02;;;;;;;18.63;9.80;;;14.20;99.90;;;;;;4976243;28;20027;-61
2022/07/01 02:30:28;;;;;;;14.30;9.75;;;14.20;99.90;;;;;;4976155;28;20408;-59
2022/07/01 02:32:54;;;;;;;12.50;8.20;;;14.10;99.90;;;;;;4976298;28;20026;-60
2022/07/01 02:35:20;;;;;;;16.25;9.20;;;14.10;99.90;;;;;;4980689;28;20574;-60
2022/07/01 02:37:45;;;;;;;16.05;7.85;;;14.10;99.90;;;;;;4976238;28;20035;-61
2022/07/01 02:40:13;;;;;;;12.88;7.13;;;14.10;99.90;;;;;;4975632;28;20034;-59
2022/07/01 02:42:39;;;;;;;16.80;6.70;;;14.10;99.90;;;;;;4976586;28;20042;-60
2022/07/01 02:45:06;;;;;;;11.75;5.97;;;14.00;99.90;;;;;;4976193;28;20464;-59
2022/07/01 02:47:37;;;;;;;12.25;6.25;;;14.00;99.90;;;;;;4976179;28;20109;-60
2022/07/01 02:50:04;;;;;;;9.68;6.43;;;14.00;99.90;;;;;;4977111;28;20408;-61
2022/07/01 02:52:30;;;;;;;13.05;6.35;;;13.90;99.90;;;;;;4975821;28;20023;-60
2022/07/01 02:54:56;;;;;;;9.85;6.32;;;13.90;99.90;;;;;;4975150;28;20038;-58
2022/07/01 02:57:22;;;;;;;12.07;6.18;;;13.90;99.90;;;;;;4975743;28;20059;-59
2022/07/01 02:59:48;;;;;;;17.45;7.28;;;13.90;99.90;;;;;;4975706;28;20034;-59
2022/07/01 03:02:14;;;;;;;14.07;7.97;;;13.90;99.90;;;;;;4973748;28;20070;-59
2022/07/01 03:04:39;;;;;;;11.82;7.00;;;13.90;99.90;;;;;;4978931;28;20056;-59
2022/07/01 03:07:05;;;;;;;11.57;7.47;;;13.90;99.90;;;;;;4974063;28;20031;-60
2022/07/01 03:09:31;;;;;;;12.60;7.35;;;13.90;99.90;;;;;;4975404;28;20060;-58
2022/07/01 03:11:56;;;;;;;9.50;6.90;;;13.90;99.90;;;;;;4975728;28;20018;-58
2022/07/01 03:14:22;;;;;;;11.02;6.90;;;13.90;99.90;;;;;;4975515;28;20420;-57
2022/07/01 03:16:47;;;;;;;9.10;5.82;;;13.90;99.90;;;;;;4977995;28;20019;-59
2022/07/01 03:19:13;;;;;;;9.30;5.80;;;14.00;99.90;;;;;;4975338;28;20497;-58
2022/07/01 03:21:40;;;;;;;9.40;5.57;;;14.00;99.90;;;;;;4975273;28;20031;-58
2022/07/01 03:24:06;;;;;;;11.60;5.07;;;14.00;99.90;;;;;;4975307;28;20433;-59
2022/07/01 03:26:31;;;;;;;6.07;4.10;;;14.00;99.90;;;;;;4974978;28;20097;-58
2022/07/01 03:28:57;;;;;;;10.43;4.53;;;14.00;99.90;;;;;;4975284;28;20035;-58
2022/07/01 03:31:23;;;;;;;14.80;4.72;;;14.00;99.90;;;;;;4979233;28;20025;-60
2022/07/01 03:33:48;;;;;;;6.38;4.60;;;14.00;99.90;;;;;;4974930;28;20392;-60
2022/07/01 03:36:14;;;;;;;8.60;4.25;;;14.00;99.90;;;;;;4974646;28;20036;-59
2022/07/01 03:38:40;;;;;;;9.50;4.32;;;14.00;99.90;;;;;;4975261;28;20030;-58
2022/07/01 03:41:05;;;;;;;6.85;4.55;;;14.00;99.90;;;;;;4974847;28;20456;-60
2022/07/01 03:43:31;;;;;;;8.70;3.80;;;13.90;99.90;;;;;;4974813;28;20432;-61
2022/07/01 03:45:56;;;;;;;9.68;3.80;;;13.90;99.90;;;;;;4973615;28;20062;-57
2022/07/01 03:48:22;;;;;;;5.03;3.72;;;14.00;99.90;;;;;;4974731;28;20026;-59
2022/07/01 03:50:48;;;;;;;10.43;3.70;;;14.00;99.90;;;;;;4974509;28;20031;-58
2022/07/01 03:55:57;;;;;;;;;;;14.10;99.90;;;;;;4979906;28;20033;-58
2022/07/01 03:58:23;;;;;;;6.10;4.20;;;14.10;99.90;;;;;;4974560;28;19992;-59
2022/07/01 04:00:49;;;;;;;5.85;3.45;;;14.10;99.90;;;;;;4974888;28;20023;-59
2022/07/01 04:03:14;;;;;;;5.85;2.85;;;14.10;99.90;;;;;;4974648;28;20147;-59
2022/07/01 04:05:40;;;;;;;6.97;3.58;;;14.10;99.90;;;;;;4972262;28;20057;-58
2022/07/01 04:08:07;;;;;;;13.55;3.60;;;14.10;99.90;;;;;;4974349;28;20046;-56
2022/07/01 04:10:34;;;;;;;8.75;3.75;;;14.10;99.90;;;;;;4974274;28;20496;-59
2022/07/01 04:13:03;;;;;;;6.30;3.30;;;14.10;99.90;;;;;;4974486;28;20081;-59
2022/07/01 04:15:29;;;;;;;5.20;3.22;;;14.20;99.90;;;;;;4974088;28;20153;-59
2022/07/01 04:17:55;;;;;;;6.63;3.22;;;14.20;99.90;;;;;;4973995;28;20105;-58
2022/07/01 04:20:21;;;;;;;5.10;3.05;;;14.20;99.90;;;;;;4978173;28;20050;-58
2022/07/01 04:22:46;;;;;;;4.07;2.90;;;14.20;99.90;;;;;;4974129;28;20043;-58
2022/07/01 04:25:13;;;;;;;9.38;3.00;;;14.20;99.90;;;;;;4973855;28;20500;-59
2022/07/01 04:27:39;;;;;;;6.70;2.72;;;14.30;99.90;;;;;;4973782;28;20055;-60
2022/07/01 04:30:05;;;;;;;5.05;2.40;;;14.30;99.90;;;;;;4973652;28;20419;-59
2022/07/01 04:32:31;;;;;;;9.60;3.00;;;14.20;99.90;;;;;;4974344;28;20030;-59
2022/07/01 04:34:57;;;;;;;4.22;2.15;;;14.20;99.90;;;;;;4974870;28;20493;-59
2022/07/01 04:37:23;;;;;;;3.28;2.17;;;14.30;99.90;;;;;;4973842;28;20026;-59
2022/07/01 04:39:48;;;;;;;5.65;2.30;;;14.20;99.90;;;;;;4973711;28;20042;-58
2022/07/01 04:42:15;;;;;;;6.68;2.28;;;14.30;99.90;;;;;;4974160;28;20118;-60
2022/07/01 04:44:40;;;;;;;6.82;2.35;;;14.20;99.90;;;;;;4973391;28;20057;-60
2022/07/01 04:47:06;;;;;;;6.50;2.30;;;14.30;99.90;;;;;;4972109;28;20050;-59
2022/07/01 04:49:32;;;;;;;5.20;2.40;;;14.30;99.90;;;;;;4974121;28;20023;-59
2022/07/01 04:51:58;;;;;;;3.72;2.40;;;14.30;99.90;;;;;;4973443;28;20034;-59
2022/07/01 04:54:25;;;;;;;2.83;2.20;;;14.30;99.90;;;;;;4973830;28;20440;-59
2022/07/01 04:56:52;;;;;;;6.93;2.17;;;14.20;99.90;;;;;;4973238;28;20019;-60
2022/07/01 04:59:19;;;;;;;8.20;2.95;;;14.20;99.90;;;;;;4973438;28;20026;-60
2022/07/01 05:01:45;;;;;;;3.67;2.08;;;14.20;99.90;;;;;;4970828;28;20043;-60
2022/07/01 05:04:12;;;;;;;4.65;1.98;;;14.10;99.90;;;;;;4973190;28;20648;-61
2022/07/01 05:06:38;;;;;;;5.00;2.00;;;14.10;99.90;;;;;;4972927;28;20493;-58
2022/07/01 05:09:04;;;;;;;5.80;2.00;;;14.10;99.90;;;;;;4973313;28;20031;-60
2022/07/01 05:11:30;;;;;;;7.78;2.35;;;14.10;99.90;;;;;;4973334;28;20031;-57
2022/07/01 05:13:56;;;;;;;2.42;1.80;;;14.20;99.90;;;;;;4973482;28;20026;-60
2022/07/01 05:16:22;;;;;;;5.10;1.98;;;14.20;99.90;;;;;;4972884;28;20026;-58
2022/07/01 05:24:16;;;;;;;9.05;2.30;;;14.20;99.90;;;;;;4973338;28;19913;-61
2022/07/01 05:26:41;;;;;;;7.45;2.63;;;14.20;99.90;;;;;;4973055;28;20056;-60
2022/07/01 05:29:08;;;;;;;7.55;2.45;;;14.20;99.90;;;;;;4972444;28;20039;-60
2022/07/01 05:31:34;;;;;;;4.28;2.80;;;14.20;99.90;;;;;;4978313;28;20027;-60
2022/07/01 05:33:59;;;;;;;2.83;2.28;;;14.20;99.90;;;;;;4972843;28;20397;-60
2022/07/01 05:36:25;;;;;;;3.90;2.20;;;14.30;99.90;;;;;;4972704;28;20034;-60
2022/07/01 05:38:50;;;;;;;2.65;2.05;;;14.40;99.90;;;;;;4976507;28;20562;-59
2022/07/01 05:41:16;;;;;;;5.95;2.60;;;14.40;99.90;;;;;;4975252;28;20034;-59
2022/07/01 05:43:42;;;;;;;8.63;2.25;;;14.40;99.90;;;;;;5020151;23;20412;-58
2022/07/01 05:46:07;;;;;;;12.88;3.92;;;14.60;99.90;;;;;;5010273;28;20022;-59
2022/07/01 05:48:33;;;;;;;5.45;2.20;;;14.60;99.90;;;;;;5011749;28;20053;-58
2022/07/01 05:50:59;;;;;;;3.25;1.88;;;14.80;99.90;;;;;;5012297;28;20120;-57
2022/07/01 05:53:24;;;;;;;4.53;2.00;;;14.80;99.90;;;;;;5012235;28;20092;-56
2022/07/01 05:55:50;;;;;;;7.47;1.70;;;14.90;99.90;;;;;;5012270;28;20049;-59
2022/07/01 05:58:16;;;;;;;2.55;1.90;;;15.00;99.90;;;;;;5012101;28;20030;-58
2022/07/01 06:00:42;;;;;;;4.38;1.95;;;15.30;99.90;;;;;;5012595;28;20057;-57
2022/07/01 06:03:10;;;;;;;5.68;2.35;;;15.40;99.90;;;;;;5010952;28;20560;-55
2022/07/01 06:05:36;;;;;;;5.60;2.35;;;15.40;99.90;;;;;;5011324;28;20030;-57
2022/07/01 06:08:02;;;;;;;5.18;1.90;;;15.50;99.90;;;;;;5011631;28;20030;-58
2022/07/01 06:10:28;;;;;;;6.65;2.28;;;15.50;99.90;;;;;;5011668;28;20038;-55
2022/07/01 06:12:54;;;;;;;7.15;2.10;;;15.60;99.90;;;;;;5011592;28;20076;-58
2022/07/01 06:15:19;;;;;;;4.20;2.78;;;15.70;99.90;;;;;;5011696;28;20026;-56
2022/07/01 06:17:45;;;;;;;9.35;2.03;;;15.80;99.90;;;;;;5013830;28;20025;-57
2022/07/01 06:20:11;;;;;;;4.32;2.45;;;16.00;99.90;;;;;;5014922;28;20491;-58
2022/07/01 06:22:36;;;;;;;4.00;2.13;;;16.20;99.90;;;;;;5011438;28;20133;-58
2022/07/01 06:25:03;;;;;;;4.50;2.70;;;16.40;99.90;;;;;;5011260;28;20071;-57
2022/07/01 06:27:28;;;;;;;3.65;2.03;;;16.70;99.90;;;;;;5011216;28;20046;-58
2022/07/01 06:29:54;;;;;;;4.25;2.00;;;16.80;99.90;;;;;;5011099;28;20053;-57
2022/07/01 06:32:20;;;;;;;9.60;2.05;;;16.60;99.90;;;;;;5013678;28;20021;-58
2022/07/01 06:34:46;;;;;;;6.40;2.20;;;16.60;99.90;;;;;;5011282;28;20026;-57
2022/07/01 06:37:12;;;;;;;10.43;2.63;;;16.40;99.90;;;;;;5011587;28;20421;-57
2022/07/01 06:39:38;;;;;;;7.43;2.50;;;16.60;99.90;;;;;;5011768;28;20046;-58
2022/07/01 06:42:04;;;;;;;8.10;2.40;;;16.90;99.90;;;;;;5014974;28;20022;-58
2022/07/01 06:44:30;;;;;;;5.72;2.20;;;17.60;99.90;;;;;;5014578;28;20387;-57
2022/07/01 06:46:55;;;;;;;4.80;2.13;;;18.20;99.90;;;;;;5014463;28;20033;-59
2022/07/01 06:49:21;;;;;;;5.20;2.13;;;18.30;99.90;;;;;;5014477;28;20029;-59
2022/07/01 06:51:46;;;;;;;5.47;2.35;;;18.10;99.90;;;;;;5014748;28;20041;-58
2022/07/01 06:54:12;;;;;;;5.75;1.90;;;17.70;99.90;;;;;;5013766;28;20109;-58
2022/07/01 06:56:38;;;;;;;6.00;2.25;;;17.60;99.90;;;;;;5014517;28;20475;-56
2022/07/01 06:59:03;;;;;;;7.82;2.55;;;17.50;99.90;;;;;;5014652;28;20033;-59
2022/07/01 07:01:29;;;;;;;6.07;2.00;;;17.50;99.90;;;;;;5017062;28;20025;-58
2022/07/01 07:03:55;;;;;;;4.88;2.03;;;17.80;99.90;;;;;;5021302;28;20084;-58
2022/07/01 07:06:21;;;;;;;6.72;2.20;;;18.10;99.90;;;;;;5014130;28;20048;-58
2022/07/01 07:08:46;;;;;;;4.72;2.20;;;18.80;99.90;;;;;;5014577;28;20410;-58
2022/07/01 07:11:14;;;;;;;4.63;2.17;;;18.90;99.90;;;;;;5014471;28;20145;-58
2022/07/01 07:13:41;;;;;;;7.00;1.75;;;18.70;99.90;;;;;;5014346;28;20053;-59
2022/07/01 07:16:07;;;;;;;7.57;1.90;;;18.60;99.90;;;;;;5016190;28;20029;-56
2022/07/01 07:18:32;;;;;;;6.28;2.15;;;18.30;99.90;;;;;;5014318;28;20050;-57
2022/07/01 07:20:58;;;;;;;8.07;2.78;;;17.90;99.90;;;;;;5014361;28;20113;-54
2022/07/01 07:23:23;;;;;;;7.50;2.00;;;17.90;99.90;;;;;;5013647;28;20033;-55
2022/07/01 07:25:49;;;;;;;6.97;2.40;;;17.90;99.90;;;;;;5013027;28;20026;-56
2022/07/01 07:28:15;;;;;;;4.00;2.00;;;17.70;99.90;;;;;;5014129;28;20033;-56
2022/07/01 07:30:40;;;;;;;5.47;1.95;;;17.50;99.90;;;;;;5013534;28;20026;-56
2022/07/01 07:33:06;;;;;;;23.73;12.82;;;17.50;99.90;;;;;;5013942;28;20029;-57
2022/07/01 07:35:31;;;;;;;11.43;5.78;;;17.70;99.90;;;;;;5013734;28;20029;-57
2022/07/01 07:37:57;;;;;;;6.95;3.00;;;17.70;99.90;;;;;;5014275;28;20033;-57
2022/07/01 07:40:24;;;;;;;6.20;1.95;;;17.80;99.90;;;;;;5013684;28;20049;-56
2022/07/01 07:42:49;;;;;;;10.25;2.40;;;17.40;99.90;;;;;;5013909;28;20123;-57
2022/07/01 07:45:16;;;;;;;6.82;2.40;;;17.20;99.90;;;;;;5018443;28;20061;-57
2022/07/01 07:47:44;;;;;;;6.65;1.80;;;17.00;99.90;;;;;;5014210;28;20026;-59
2022/07/01 07:50:10;;;;;;;4.75;1.77;;;17.10;99.90;;;;;;5012563;28;20487;-54
2022/07/01 07:52:35;;;;;;;4.43;1.80;;;17.00;99.90;;;;;;5012830;28;20472;-58
2022/07/01 07:55:02;;;;;;;5.53;2.17;;;16.80;99.90;;;;;;5013883;28;20042;-58
2022/07/01 07:57:27;;;;;;;8.55;2.53;;;16.70;99.90;;;;;;5013862;28;20096;-58
2022/07/01 07:59:53;;;;;;;3.83;1.75;;;16.60;99.90;;;;;;5022633;28;20031;-59
2022/07/01 08:02:18;;;;;;;6.72;1.90;;;16.60;99.90;;;;;;5013966;28;20424;-58
2022/07/01 08:04:44;;;;;;;6.20;1.75;;;16.50;99.90;;;;;;5013334;28;20033;-57
2022/07/01 08:07:10;;;;;;;4.32;1.38;;;16.40;99.90;;;;;;5013961;28;20026;-59
2022/07/01 08:09:35;;;;;;;12.13;2.00;;;16.50;99.90;;;;;;5013443;28;20550;-60
2022/07/01 08:12:02;;;;;;;4.70;1.50;;;16.80;99.90;;;;;;5012306;28;20439;-60
2022/07/01 08:14:27;;;;;;;2.80;1.20;;;17.30;99.90;;;;;;5013167;28;20443;-59
2022/07/01 08:16:53;;;;;;;4.45;1.50;;;18.00;99.90;;;;;;5013066;28;20046;-59
2022/07/01 08:19:19;;;;;;;3.13;1.08;;;19.10;99.90;;;;;;5015547;28;20483;-60
2022/07/01 08:21:45;;;;;;;3.35;1.50;;;19.70;99.90;;;;;;5013733;28;20040;-60
2022/07/01 08:24:10;;;;;;;6.78;1.48;;;20.00;99.90;;;;;;5012986;28;20037;-59
2022/07/01 08:26:36;;;;;;;4.78;1.55;;;19.90;99.90;;;;;;5012814;28;20037;-58
2022/07/01 08:29:02;;;;;;;6.60;2.35;;;19.80;99.90;;;;;;5014540;28;20052;-57
2022/07/01 08:31:28;;;;;;;4.68;1.23;;;19.30;99.90;;;;;;5013094;28;20030;-59
2022/07/01 08:33:53;;;;;;;6.78;1.70;;;19.10;99.90;;;;;;5012855;28;20037;-58
2022/07/01 08:36:19;;;;;;;2.42;1.40;;;18.90;99.90;;;;;;5012540;28;20018;-59
2022/07/01 08:38:44;;;;;;;2.80;1.73;;;18.40;99.90;;;;;;5013385;28;20104;-59
2022/07/01 08:41:12;;;;;;;3.50;1.92;;;18.20;99.90;;;;;;5013291;28;20030;-59
2022/07/01 08:43:38;;;;;;;5.32;2.10;;;18.10;99.90;;;;;;5013653;28;20108;-59
2022/07/01 08:46:04;;;;;;;5.70;1.90;;;18.10;99.90;;;;;;5012388;28;20531;-58
2022/07/01 08:48:30;;;;;;;4.57;1.50;;;18.30;99.90;;;;;;5012837;28;20542;-59
2022/07/01 08:50:56;;;;;;;6.20;1.67;;;18.50;99.90;;;;;;5012534;28;20080;-59
2022/07/01 08:53:22;;;;;;;6.63;2.58;;;18.50;99.90;;;;;;5013778;28;20464;-59
2022/07/01 08:58:32;;;;;;;6.10;1.95;;;18.40;99.90;;;;;;5018194;28;20033;-58
2022/07/01 09:01:22;;;;;;;5.97;1.80;;;18.60;99.90;;;;;;5012244;28;20092;-57
2022/07/01 09:03:52;;;;;;;4.93;1.80;;;18.60;99.90;;;;;;5011177;28;20483;-56
2022/07/01 09:06:23;;;;;;;8.63;3.78;;;18.70;99.90;;;;;;5012898;28;20033;-58
2022/07/01 09:08:48;;;;;;;3.72;1.40;;;19.00;99.90;;;;;;5012213;28;20119;-59
2022/07/01 09:11:19;;;;;;;5.15;1.52;;;19.30;99.90;;;;;;5012717;28;20468;-58
2022/07/01 09:14:04;;;;;;;4.85;1.42;;;19.60;99.90;;;;;;5012420;28;20033;-58
2022/07/01 09:16:29;;;;;;;4.03;1.55;;;19.70;99.90;;;;;;5012331;28;20105;-57
2022/07/01 09:19:04;;;;;;;6.55;1.63;;;19.90;99.90;;;;;;5012274;28;20168;-58
2022/07/01 09:21:31;;;;;;;3.17;1.10;;;20.00;99.90;;;;;;5018063;28;20119;-58
2022/07/01 09:24:23;;;;;;;6.70;1.50;;;20.00;99.90;;;;;;5012161;28;20030;-59
2022/07/01 09:27:00;;;;;;;2.03;1.40;;;20.00;99.90;;;;;;5009781;28;20121;-59
2022/07/01 09:29:31;;;;;;;11.25;3.78;;;20.10;99.90;;;;;;5012295;28;20080;-56
2022/07/01 09:31:58;;;;;;;5.63;1.60;;;20.30;99.90;;;;;;5008509;28;20025;-57
2022/07/01 09:34:31;;;;;;;3.13;1.38;;;20.40;99.90;;;;;;5011354;28;20161;-58
2022/07/01 09:36:58;;;;;;;2.85;1.17;;;21.10;99.90;;;;;;5013903;28;20079;-56
2022/07/01 09:39:24;;;;;;;7.95;1.40;;;21.30;98.80;;;;;;5011305;28;20037;-57
2022/07/01 09:41:53;;;;;;;3.95;1.30;;;21.50;99.00;;;;;;5018249;28;20022;-59
2022/07/01 09:44:19;;;;;;;4.30;1.17;;;21.60;96.90;;;;;;5013826;28;20510;-59
2022/07/01 09:46:55;;;;;;;4.70;1.30;;;21.80;96.60;;;;;;5011537;28;20072;-60
2022/07/01 09:49:22;;;;;;;2.28;1.30;;;22.10;96.20;;;;;;5011937;28;20407;-60
2022/07/01 09:51:49;;;;;;;6.78;1.40;;;22.30;97.60;;;;;;5010696;28;20030;-58
2022/07/01 09:54:15;;;;;;;3.50;1.42;;;22.40;95.60;;;;;;5016827;28;20030;-57
2022/07/01 09:56:41;;;;;;;4.65;1.48;;;21.80;94.30;;;;;;5011229;28;20022;-57
2022/07/01 09:59:06;;;;;;;4.65;1.35;;;22.70;99.90;;;;;;5011799;28;20018;-57
2022/07/01 10:01:32;;;;;;;5.65;1.20;;;23.60;93.40;;;;;;5011502;28;20037;-56
2022/07/01 10:04:01;;;;;;;3.65;1.65;;;24.80;91.50;;;;;;5014332;28;20439;-56
2022/07/01 10:06:51;;;;;;;3.65;1.10;;;25.20;90.00;;;;;;5018171;28;20037;-59
2022/07/01 10:09:35;;;;;;;2.70;1.20;;;25.30;84.70;;;;;;5011769;28;20057;-58
2022/07/01 10:12:32;;;;;;;3.63;1.50;;;24.40;86.00;;;;;;5007910;28;20095;-58
2022/07/01 10:15:00;;;;;;;6.97;1.20;;;23.80;87.80;;;;;;4988471;28;20121;-58
2022/07/01 10:17:36;;;;;;;4.10;1.52;;;23.90;90.50;;;;;;5015485;28;20407;-57
2022/07/01 10:20:12;;;;;;;2.67;1.10;;;23.90;87.10;;;;;;5015702;28;20539;-56
2022/07/01 10:22:39;;;;;;;2.25;1.00;;;23.50;90.00;;;;;;5015869;28;20084;-58
2022/07/01 10:25:41;;;;;;;2.65;1.30;;;23.40;90.10;;;;;;5015145;28;20029;-57
2022/07/01 10:28:19;;;;;;;5.82;1.35;;;23.30;91.30;;;;;;5004378;28;20033;-58
2022/07/01 10:30:59;;;;;;;3.95;1.40;;;23.30;90.30;;;;;;5011210;28;20053;-57
2022/07/01 10:33:56;;;;;;;2.47;1.33;;;23.40;91.10;;;;;;5014820;28;20034;-57
2022/07/01 10:36:35;;;;;;;7.00;1.50;;;23.20;89.80;;;;;;4992953;28;20034;-57
2022/07/01 10:39:06;;;;;;;3.47;1.00;;;23.30;90.60;;;;;;4995460;28;20050;-58
2022/07/01 10:41:53;;;;;;;4.93;1.48;;;23.70;89.20;;;;;;4995693;28;20026;-58
2022/07/01 10:44:20;;;;;;;4.13;1.20;;;23.30;84.80;;;;;;5017991;28;20029;-55
2022/07/01 10:46:57;;;;;;;2.38;1.20;;;22.90;85.50;;;;;;5014393;28;20113;-57
2022/07/01 10:49:40;;;;;;;5.03;1.45;;;22.80;92.00;;;;;;5015087;28;20503;-58
2022/07/01 10:52:07;;;;;;;3.70;1.48;;;22.70;90.50;;;;;;5014897;28;20041;-57
2022/07/01 10:54:36;;;;;;;6.45;1.17;;;22.80;89.70;;;;;;5014876;28;20034;-58
2022/07/01 10:57:17;;;;;;;3.28;1.17;;;22.70;85.50;;;;;;5013479;28;20372;-56
2022/07/01 10:59:45;;;;;;;2.00;0.90;;;22.90;89.30;;;;;;5007968;28;20044;-58
2022/07/01 11:02:19;;;;;;;3.42;1.08;;;22.90;88.50;;;;;;5013902;28;20022;-58
2022/07/01 11:04:45;;;;;;;5.28;0.85;;;22.90;89.00;;;;;;5014384;28;20038;-58
2022/07/01 11:07:11;;;;;;;6.60;1.45;;;22.80;84.30;;;;;;5014541;28;20109;-57
2022/07/01 11:09:37;;;;;;;4.35;1.38;;;22.60;86.00;;;;;;5014126;28;20033;-57
2022/07/01 11:12:04;;;;;;;3.67;0.98;;;22.60;85.20;;;;;;5017275;28;20148;-57
2022/07/01 11:14:34;;;;;;;3.15;1.00;;;22.60;87.70;;;;;;5014221;28;20399;-58
2022/07/01 11:17:00;;;;;;;3.38;1.52;;;22.70;89.10;;;;;;5014347;28;20498;-57
2022/07/01 11:19:26;;;;;;;3.95;1.35;;;22.50;84.60;;;;;;5014292;28;20029;-56
2022/07/01 11:21:52;;;;;;;2.58;0.85;;;23.00;86.60;;;;;;5014327;28;20487;-58
2022/07/01 11:24:18;;;;;;;2.17;1.17;;;23.50;81.70;;;;;;5014299;28;20042;-58
2022/07/01 11:26:44;;;;;;;2.75;1.00;;;23.30;80.70;;;;;;5020108;28;20030;-57
2022/07/01 11:29:15;;;;;;;6.57;1.00;;;23.20;82.30;;;;;;5015448;28;20084;-59
2022/07/01 11:31:41;;;;;;;1.70;0.80;;;23.40;80.40;;;;;;5008754;28;20038;-57
2022/07/01 11:34:07;;;;;;;4.95;0.85;;;23.60;79.10;;;;;;5017388;28;20121;-58
2022/07/01 11:39:23;;;;;;;3.13;1.05;;;22.80;81.70;;;;;;5017853;28;20117;-57
2022/07/01 11:42:00;;;;;;;5.03;1.27;;;22.50;82.60;;;;;;5012228;28;20025;-56
2022/07/01 11:44:34;;;;;;;1.98;0.77;;;22.10;83.00;;;;;;5028224;22;20053;-58
2022/07/01 11:47:02;;;;;;;3.50;1.10;;;21.60;85.90;;;;;;4986367;28;20377;-58
2022/07/01 11:49:28;;;;;;;5.43;0.93;;;21.50;89.70;;;;;;4992917;28;20034;-60
2022/07/01 11:51:59;;;;;;;4.40;1.02;;;21.40;88.30;;;;;;4993486;28;20038;-61
2022/07/01 11:54:25;;;;;;;4.97;1.13;;;21.30;90.30;;;;;;4992192;28;20077;-60
2022/07/01 11:56:51;;;;;;;4.18;1.00;;;21.40;90.10;;;;;;4991168;28;20036;-61
2022/07/01 11:59:18;;;;;;;7.55;1.30;;;21.50;90.10;;;;;;4991712;28;20023;-61
2022/07/01 12:01:52;;;;;;;1.88;0.75;;;21.70;87.30;;;;;;4992220;28;20065;-62
2022/07/01 12:04:18;;;;;;;4.18;0.95;;;22.10;89.30;;;;;;4991603;28;20022;-60
2022/07/01 12:06:43;;;;;;;2.28;0.98;;;22.70;85.00;;;;;;4992244;28;20373;-60
2022/07/01 12:09:28;;;;;;;3.42;0.98;;;23.00;82.00;;;;;;4989142;28;20030;-60
2022/07/01 12:11:53;;;;;;;6.25;2.60;;;23.30;84.60;;;;;;4989868;28;20488;-59
2022/07/01 12:14:25;;;;;;;3.55;1.05;;;23.40;82.70;;;;;;4991887;28;20067;-58
2022/07/01 12:16:57;;;;;;;3.20;0.82;;;23.20;79.40;;;;;;4991823;28;20484;-58
2022/07/01 12:19:44;;;;;;;3.92;0.85;;;23.40;82.10;;;;;;4992921;28;20404;-58
2022/07/01 12:22:28;;;;;;;4.47;0.90;;;23.40;80.80;;;;;;4991540;28;20400;-59
2022/07/01 12:25:10;;;;;;;2.28;0.90;;;23.30;81.30;;;;;;4987606;28;20034;-59
2022/07/01 12:27:38;;;;;;;10.27;1.00;;;23.50;80.40;;;;;;4987112;28;20558;-58
2022/07/01 12:30:06;;;;;;;1.67;0.93;;;23.30;79.30;;;;;;4990974;28;20141;-59
2022/07/01 12:32:36;;;;;;;2.72;1.00;;;22.90;82.10;;;;;;4991526;28;20026;-59
2022/07/01 12:35:04;;;;;;;2.47;0.70;;;22.90;80.20;;;;;;4991817;28;20105;-60
2022/07/01 12:37:32;;;;;;;3.35;0.90;;;23.00;78.40;;;;;;4990444;28;20026;-57
2022/07/01 12:40:05;;;;;;;7.65;1.48;;;23.30;79.40;;;;;;4988567;28;20113;-59
2022/07/01 12:42:40;;;;;;;1.70;1.05;;;23.00;82.70;;;;;;4990349;28;20078;-59
2022/07/01 12:45:11;;;;;;;5.25;1.05;;;22.70;82.00;;;;;;4990873;28;20443;-58
2022/07/01 12:47:45;;;;;;;2.47;1.05;;;22.50;86.30;;;;;;4985153;28;20037;-59
2022/07/01 12:50:13;;;;;;;;;;;22.40;85.10;;;;;;4993787;28;20030;-57
2022/07/01 12:52:46;;;;;;;6.75;1.33;;;22.20;84.00;;;;;;4993170;28;19905;-59
2022/07/01 12:55:16;;;;;;;1.35;1.00;;;22.20;85.00;;;;;;4993002;28;20030;-60
2022/07/01 12:57:42;;;;;;;2.28;0.80;;;22.70;82.60;;;;;;4992168;28;20022;-60
2022/07/01 13:00:08;;;;;;;4.97;1.25;;;23.20;81.10;;;;;;4991240;28;20035;-59
2022/07/01 13:02:34;;;;;;;3.00;1.10;;;23.40;77.50;;;;;;4992365;28;20161;-59
2022/07/01 13:04:59;;;;;;;5.03;1.10;;;23.60;80.70;;;;;;4991098;28;20030;-60